Time;durP1;ratioP1;P1;durP2;ratioP2;P2;SDS_P1;SDS_P2;PMS_P1;PMS_P2;Temp;Humidity;BMP_temperature;BMP_pressure;BME280_temperature;BME280_humidity;BME280_pressure;Samples;Min_cycle;Max_cycle;Signal;HPM_P1;HPM_P2
2022/03/22 00:01:21;;;;;;;12.00;9.97;;;4.10;81.20;;;;;;4970699;28;20290;-86
2022/03/22 00:03:47;;;;;;;12.23;9.60;;;4.00;81.60;;;;;;4973550;28;20200;-86
2022/03/22 00:06:13;;;;;;;12.90;10.50;;;4.10;83.60;;;;;;4964640;28;20193;-86
2022/03/22 00:08:41;;;;;;;11.60;9.80;;;4.00;82.20;;;;;;4969524;28;20494;-85
2022/03/22 00:11:06;;;;;;;13.27;9.77;;;4.00;82.70;;;;;;4984866;28;20989;-85
2022/03/22 00:13:33;;;;;;;12.83;10.50;;;4.00;82.70;;;;;;4988002;28;21083;-85
2022/03/22 00:15:58;;;;;;;13.57;11.37;;;4.00;82.70;;;;;;4967185;28;20219;-86
2022/03/22 00:18:24;;;;;;;15.73;10.63;;;3.90;83.60;;;;;;4969273;28;20963;-86
2022/03/22 00:20:50;;;;;;;12.57;10.73;;;3.90;83.50;;;;;;4981143;28;20192;-85
2022/03/22 00:23:19;;;;;;;14.40;10.43;;;3.80;83.50;;;;;;4982415;28;20650;-86
2022/03/22 00:25:45;;;;;;;14.50;10.67;;;3.80;84.20;;;;;;4970580;28;20185;-85
2022/03/22 00:28:12;;;;;;;13.90;10.43;;;3.70;84.70;;;;;;4968620;28;20551;-86
2022/03/22 00:30:39;;;;;;;14.53;10.40;;;3.70;85.00;;;;;;4961814;28;21167;-86
2022/03/22 00:33:06;;;;;;;11.37;10.13;;;3.70;86.10;;;;;;4976062;28;20502;-86
2022/03/22 00:35:37;;;;;;;13.13;10.20;;;3.70;86.90;;;;;;4961462;28;20455;-87
2022/03/22 00:38:06;;;;;;;13.23;10.43;;;3.60;86.50;;;;;;4971415;28;20475;-86
2022/03/22 00:40:32;;;;;;;13.03;10.63;;;3.70;86.70;;;;;;4982071;28;22220;-86
2022/03/22 00:42:59;;;;;;;14.97;10.60;;;3.60;87.70;;;;;;4991205;28;21057;-88
2022/03/22 00:45:27;;;;;;;14.27;9.93;;;3.60;89.10;;;;;;4970479;28;20449;-86
2022/03/22 00:47:54;;;;;;;11.57;9.90;;;3.60;89.30;;;;;;4972362;28;20482;-86
2022/03/22 00:50:27;;;;;;;13.70;10.60;;;3.50;88.60;;;;;;4985432;28;21581;-86
2022/03/22 00:52:53;;;;;;;13.50;10.10;;;3.40;88.50;;;;;;4966713;28;20449;-86
2022/03/22 00:55:21;;;;;;;11.67;9.47;;;3.50;89.00;;;;;;4974710;28;20445;-88
2022/03/22 00:57:47;;;;;;;15.67;11.07;;;3.60;88.70;;;;;;4963158;28;20432;-88
2022/03/22 01:00:14;;;;;;;13.73;10.93;;;3.60;89.70;;;;;;4960847;28;20448;-88
2022/03/22 01:02:45;;;;;;;14.83;10.60;;;3.70;88.90;;;;;;4971095;28;20189;-88
2022/03/22 01:05:13;;;;;;;16.93;10.57;;;3.60;90.10;;;;;;4968994;28;20444;-88
2022/03/22 01:07:41;;;;;;;15.90;11.83;;;3.60;89.50;;;;;;4988751;28;20535;-88
2022/03/22 01:10:09;;;;;;;14.80;10.73;;;3.60;89.80;;;;;;4965278;28;20502;-87
2022/03/22 01:12:35;;;;;;;15.90;11.00;;;3.50;90.30;;;;;;4962483;28;20587;-87
2022/03/22 01:15:03;;;;;;;17.00;10.97;;;3.60;90.60;;;;;;4966203;28;20444;-87
2022/03/22 01:17:31;;;;;;;16.73;10.60;;;3.60;90.70;;;;;;4966529;28;20471;-87
2022/03/22 01:19:57;;;;;;;15.97;11.67;;;3.60;90.60;;;;;;4992384;28;21475;-87
2022/03/22 01:22:23;;;;;;;15.80;11.63;;;3.60;90.40;;;;;;4970380;28;21214;-87
2022/03/22 01:24:52;;;;;;;14.80;11.60;;;3.60;90.70;;;;;;4995340;28;20530;-88
2022/03/22 01:27:21;;;;;;;18.43;11.93;;;3.40;91.20;;;;;;4993093;28;20453;-87
2022/03/22 01:29:47;;;;;;;14.63;11.00;;;3.40;92.10;;;;;;4965477;28;20484;-87
2022/03/22 01:32:13;;;;;;;13.80;11.43;;;3.30;92.20;;;;;;4961619;28;20440;-86
2022/03/22 01:34:39;;;;;;;16.40;10.90;;;3.40;92.50;;;;;;4964358;28;20464;-87
2022/03/22 01:37:05;;;;;;;14.00;10.37;;;3.30;93.00;;;;;;4973261;28;21069;-86
2022/03/22 01:39:30;;;;;;;15.77;11.33;;;3.20;93.50;;;;;;4959203;28;20850;-86
2022/03/22 01:41:57;;;;;;;14.77;10.67;;;3.20;93.70;;;;;;4973076;28;20192;-87
2022/03/22 01:44:24;;;;;;;13.20;11.07;;;3.20;93.80;;;;;;4976123;28;20188;-86
2022/03/22 01:46:51;;;;;;;17.70;11.53;;;3.10;93.90;;;;;;4985953;28;20468;-87
2022/03/22 01:49:18;;;;;;;16.00;11.80;;;3.10;94.10;;;;;;4977541;28;20571;-86
2022/03/22 01:51:45;;;;;;;17.53;11.27;;;3.10;93.90;;;;;;4972072;28;20530;-86
2022/03/22 01:54:12;;;;;;;14.40;10.67;;;3.00;93.90;;;;;;4975830;28;20545;-87
2022/03/22 01:56:38;;;;;;;13.90;10.73;;;3.10;94.60;;;;;;4994046;28;20531;-86
2022/03/22 01:59:03;;;;;;;17.20;12.03;;;2.80;94.50;;;;;;4986377;28;20519;-86
2022/03/22 02:07:00;;;;;;;14.83;10.83;;;2.70;95.50;;;;;;4988725;28;20917;-85
2022/03/22 02:09:25;;;;;;;15.13;11.33;;;2.80;95.70;;;;;;4980791;28;20443;-86
2022/03/22 02:11:51;;;;;;;15.90;12.03;;;2.80;95.70;;;;;;4972529;28;20449;-88
2022/03/22 02:14:16;;;;;;;13.60;11.07;;;2.90;95.50;;;;;;4995267;28;20258;-88
2022/03/22 02:16:43;;;;;;;13.57;11.53;;;2.90;95.80;;;;;;4969798;28;20189;-87
2022/03/22 02:19:11;;;;;;;16.50;11.83;;;2.90;95.80;;;;;;4993613;28;20220;-87
2022/03/22 02:21:40;;;;;;;13.13;11.10;;;2.80;95.70;;;;;;4984168;28;20432;-88
2022/03/22 02:24:06;;;;;;;17.73;10.70;;;2.70;96.00;;;;;;4973352;28;20471;-87
2022/03/22 02:26:31;;;;;;;13.00;10.23;;;2.70;96.00;;;;;;4982479;28;22031;-87
2022/03/22 02:28:57;;;;;;;13.60;11.33;;;2.70;96.10;;;;;;4995523;28;20795;-87
2022/03/22 02:31:24;;;;;;;15.53;11.83;;;2.60;96.00;;;;;;4990749;28;20186;-87
2022/03/22 02:33:50;;;;;;;17.60;10.63;;;2.70;96.40;;;;;;4967686;28;20392;-88
2022/03/22 02:36:16;;;;;;;16.40;11.10;;;2.80;96.40;;;;;;4979379;28;20493;-87
2022/03/22 02:38:42;;;;;;;17.13;12.07;;;2.70;96.80;;;;;;4989556;28;20208;-87
2022/03/22 02:41:15;;;;;;;15.40;10.60;;;2.70;97.00;;;;;;4988863;28;20443;-88
2022/03/22 02:43:41;;;;;;;15.20;11.00;;;2.70;96.90;;;;;;4986130;28;20448;-88
2022/03/22 02:46:06;;;;;;;17.20;11.30;;;2.80;97.20;;;;;;4974723;28;20636;-87
2022/03/22 02:48:38;;;;;;;16.83;11.47;;;2.90;96.80;;;;;;4990085;28;20740;-87
2022/03/22 02:51:07;;;;;;;14.60;10.90;;;3.00;96.60;;;;;;4984214;28;21831;-87
2022/03/22 02:53:33;;;;;;;13.40;11.13;;;3.00;96.40;;;;;;4981892;28;20482;-87
2022/03/22 02:55:59;;;;;;;14.70;11.13;;;3.00;96.30;;;;;;4994894;28;20581;-87
2022/03/22 02:58:24;;;;;;;15.63;11.60;;;2.60;96.60;;;;;;4983093;28;20456;-86
2022/03/22 03:00:56;;;;;;;13.80;11.23;;;2.40;97.70;;;;;;4999212;28;20455;-86
2022/03/22 03:03:22;;;;;;;19.10;13.00;;;2.40;97.60;;;;;;4986088;28;20211;-86
2022/03/22 03:05:51;;;;;;;16.93;11.87;;;2.50;97.40;;;;;;4999323;28;20455;-86
2022/03/22 03:08:17;;;;;;;17.20;12.20;;;2.40;97.10;;;;;;4983552;28;21592;-86
2022/03/22 03:10:43;;;;;;;16.13;12.43;;;2.30;97.50;;;;;;4981955;28;21519;-86
2022/03/22 03:13:09;;;;;;;17.50;12.73;;;2.30;97.80;;;;;;4982094;28;20525;-86
2022/03/22 03:15:35;;;;;;;14.97;10.93;;;2.40;98.00;;;;;;4993761;28;20903;-86
2022/03/22 03:18:00;;;;;;;16.67;11.10;;;2.40;98.00;;;;;;4986854;28;20436;-87
2022/03/22 03:20:26;;;;;;;18.97;11.17;;;2.40;97.50;;;;;;4998587;28;20359;-86
2022/03/22 03:22:52;;;;;;;16.63;11.40;;;2.20;98.30;;;;;;4982835;28;20181;-86
2022/03/22 03:25:18;;;;;;;18.50;12.00;;;2.20;98.70;;;;;;4981441;28;20454;-86
2022/03/22 03:27:44;;;;;;;18.30;11.77;;;2.20;98.90;;;;;;5007732;28;20548;-88
2022/03/22 03:30:10;;;;;;;15.70;11.70;;;2.20;99.50;;;;;;4988828;28;20188;-87
2022/03/22 03:32:36;;;;;;;17.20;11.27;;;2.30;99.90;;;;;;5001602;28;20530;-88
2022/03/22 03:35:04;;;;;;;14.70;11.53;;;2.40;99.60;;;;;;4987454;28;20506;-87
2022/03/22 03:37:34;;;;;;;16.53;12.57;;;2.20;99.90;;;;;;4986784;28;20767;-86
2022/03/22 03:40:00;;;;;;;21.60;11.50;;;2.10;99.80;;;;;;4989084;28;20852;-87
2022/03/22 03:42:25;;;;;;;14.67;10.93;;;2.20;98.90;;;;;;4990567;28;20557;-86
2022/03/22 03:47:35;;;;;;;18.03;11.67;;;2.10;98.30;;;;;;4988619;28;20274;-86
2022/03/22 03:50:05;;;;;;;15.13;11.97;;;2.10;99.10;;;;;;4998590;28;20455;-86
2022/03/22 03:52:37;;;;;;;18.00;12.17;;;2.00;99.40;;;;;;4977993;28;20185;-86
2022/03/22 03:55:06;;;;;;;15.33;11.47;;;1.90;99.80;;;;;;4980519;28;20849;-86
2022/03/22 03:57:33;;;;;;;14.43;11.13;;;1.90;99.90;;;;;;4979034;28;20807;-86
2022/03/22 03:59:59;;;;;;;15.40;11.90;;;1.80;99.90;;;;;;4970583;28;20468;-87
2022/03/22 04:02:25;;;;;;;15.47;11.70;;;1.90;99.90;;;;;;4979945;28;20526;-86
2022/03/22 04:04:55;;;;;;;18.20;12.00;;;1.80;99.90;;;;;;4995089;28;20449;-87
2022/03/22 04:07:25;;;;;;;16.03;10.50;;;1.90;99.90;;;;;;4992802;28;20431;-86
2022/03/22 04:09:51;;;;;;;15.70;11.53;;;1.90;99.90;;;;;;4979572;28;21292;-87
2022/03/22 04:12:17;;;;;;;17.70;12.27;;;2.00;99.90;;;;;;4975461;28;20557;-87
2022/03/22 04:14:43;;;;;;;15.37;11.63;;;2.00;99.90;;;;;;4979089;28;20530;-86
2022/03/22 04:17:08;;;;;;;16.67;11.60;;;2.00;99.90;;;;;;4994314;28;20185;-86
2022/03/22 04:19:35;;;;;;;13.33;11.10;;;2.00;99.90;;;;;;4984046;28;20699;-85
2022/03/22 04:22:02;;;;;;;14.30;11.43;;;2.20;99.90;;;;;;4989356;28;20327;-86
2022/03/22 04:24:28;;;;;;;15.20;11.23;;;2.20;99.90;;;;;;4975616;28;20439;-86
2022/03/22 04:26:55;;;;;;;17.27;12.43;;;2.20;99.90;;;;;;4975802;28;20578;-86
2022/03/22 04:34:49;;;;;;;15.90;11.87;;;1.90;99.90;;;;;;4988252;28;21123;-86
2022/03/22 04:37:15;;;;;;;14.83;11.30;;;1.90;99.90;;;;;;4985604;28;20440;-87
2022/03/22 04:39:43;;;;;;;16.43;11.40;;;1.90;99.90;;;;;;4973089;28;20348;-87
2022/03/22 04:42:15;;;;;;;16.70;10.40;;;1.90;99.90;;;;;;4980935;28;20480;-87
2022/03/22 04:44:42;;;;;;;14.20;10.33;;;2.00;99.90;;;;;;4980569;28;20443;-87
2022/03/22 04:47:08;;;;;;;15.40;10.97;;;1.90;99.90;;;;;;4981596;28;20444;-88
2022/03/22 04:49:34;;;;;;;16.80;11.43;;;1.90;99.90;;;;;;4984047;28;21244;-86
2022/03/22 04:57:28;;;;;;;17.10;11.10;;;1.80;99.90;;;;;;4979783;28;20444;-87
2022/03/22 04:59:54;;;;;;;16.57;11.00;;;1.80;99.90;;;;;;4973489;28;20849;-86
2022/03/22 05:02:20;;;;;;;15.53;11.20;;;1.80;99.90;;;;;;4951310;28;20193;-88
2022/03/22 05:04:46;;;;;;;17.23;11.30;;;1.70;99.90;;;;;;4969940;28;20534;-87
2022/03/22 05:07:11;;;;;;;16.03;11.83;;;1.60;99.90;;;;;;4980103;28;21298;-88
2022/03/22 05:09:37;;;;;;;16.63;11.53;;;1.70;99.90;;;;;;4969518;28;20193;-87
2022/03/22 05:12:07;;;;;;;14.67;11.00;;;1.70;99.90;;;;;;4985008;28;20200;-87
2022/03/22 05:14:32;;;;;;;15.40;11.70;;;1.80;99.90;;;;;;4978248;28;20643;-89
2022/03/22 05:16:58;;;;;;;15.90;11.13;;;1.80;99.90;;;;;;4987119;28;20474;-88
2022/03/22 05:19:27;;;;;;;19.30;11.37;;;1.70;99.90;;;;;;5003976;28;20233;-87
2022/03/22 05:21:56;;;;;;;19.20;12.63;;;1.60;99.90;;;;;;4978138;28;20444;-87
2022/03/22 05:24:21;;;;;;;16.40;11.33;;;1.70;99.90;;;;;;4974928;28;20443;-88
2022/03/22 05:26:47;;;;;;;12.83;9.93;;;1.80;99.90;;;;;;4998837;28;20979;-88
2022/03/22 05:29:13;;;;;;;14.30;10.80;;;1.70;99.90;;;;;;5011290;28;20439;-87
2022/03/22 05:31:39;;;;;;;15.90;11.67;;;1.60;99.90;;;;;;4974831;28;20394;-87
2022/03/22 05:34:10;;;;;;;16.20;11.23;;;1.60;99.90;;;;;;4999615;28;20453;-88
2022/03/22 05:36:39;;;;;;;15.00;10.73;;;1.60;99.90;;;;;;4974295;28;20444;-87
2022/03/22 05:39:07;;;;;;;13.77;11.27;;;1.40;99.90;;;;;;4998604;28;21934;-86
2022/03/22 05:41:32;;;;;;;19.40;11.80;;;1.50;99.90;;;;;;5009910;28;20493;-86
2022/03/22 05:44:03;;;;;;;14.00;10.30;;;1.50;99.90;;;;;;4983151;28;20451;-88
2022/03/22 05:46:29;;;;;;;16.40;11.50;;;1.50;99.90;;;;;;4994216;28;20263;-86
2022/03/22 05:49:08;;;;;;;18.57;11.07;;;1.50;99.90;;;;;;5000460;28;20992;-87
2022/03/22 05:51:37;;;;;;;15.63;11.13;;;1.40;99.90;;;;;;4972039;28;20243;-87
2022/03/22 05:54:05;;;;;;;17.33;12.70;;;1.00;99.90;;;;;;4989071;28;20527;-87
2022/03/22 05:57:00;;;;;;;16.33;10.50;;;1.10;99.90;;;;;;4981141;28;20483;-88
2022/03/22 05:59:45;;;;;;;18.00;12.17;;;1.40;99.90;;;;;;4989866;28;20480;-86
2022/03/22 06:02:13;;;;;;;17.43;12.47;;;1.60;99.90;;;;;;4968781;28;21057;-87
2022/03/22 06:04:39;;;;;;;17.67;12.30;;;1.70;99.90;;;;;;4972678;28;20598;-88
2022/03/22 06:07:05;;;;;;;14.90;11.00;;;1.90;99.90;;;;;;4991764;28;20452;-87
2022/03/22 06:09:31;;;;;;;17.83;12.00;;;1.90;99.90;;;;;;4976352;28;20193;-88
2022/03/22 06:12:01;;;;;;;16.83;12.10;;;2.90;99.90;;;;;;4975693;28;21009;-88
2022/03/22 06:14:31;;;;;;;15.47;11.33;;;2.10;99.90;;;;;;4990626;28;20290;-88
2022/03/22 06:16:57;;;;;;;13.93;10.07;;;2.00;99.90;;;;;;4990220;28;22187;-89
2022/03/22 06:19:23;;;;;;;14.10;11.13;;;1.70;99.90;;;;;;4977280;28;20487;-89
2022/03/22 06:21:49;;;;;;;16.20;12.27;;;2.20;99.90;;;;;;4988750;28;20446;-89
2022/03/22 06:24:36;;;;;;;16.53;12.70;;;2.20;99.90;;;;;;4974590;28;20684;-88
2022/03/22 06:27:02;;;;;;;19.37;11.33;;;1.80;99.90;;;;;;4980140;28;20439;-88
2022/03/22 06:29:28;;;;;;;15.07;10.73;;;1.80;99.90;;;;;;4975016;28;20460;-87
2022/03/22 06:31:54;;;;;;;16.77;12.00;;;2.40;99.90;;;;;;4975365;28;20799;-87
2022/03/22 06:34:19;;;;;;;15.47;11.30;;;1.90;99.90;;;;;;4988454;28;21296;-87
2022/03/22 06:36:45;;;;;;;14.23;10.47;;;2.30;99.90;;;;;;4967386;28;21930;-87
2022/03/22 06:39:11;;;;;;;15.47;11.97;;;2.00;99.90;;;;;;4971373;28;20217;-87
2022/03/22 06:41:37;;;;;;;45.37;35.33;;;2.20;99.90;;;;;;4995421;28;20790;-89
2022/03/22 06:44:02;;;;;;;40.63;27.93;;;3.40;99.90;;;;;;5015762;28;20189;-89
2022/03/22 06:46:28;;;;;;;16.03;11.50;;;2.50;99.90;;;;;;4990817;28;20184;-89
2022/03/22 06:48:54;;;;;;;15.10;11.83;;;2.20;99.90;;;;;;4976104;28;20254;-90
2022/03/22 06:51:21;;;;;;;16.60;11.80;;;2.00;99.90;;;;;;4969704;28;21778;-88
2022/03/22 06:53:47;;;;;;;14.70;10.70;;;2.30;99.90;;;;;;4992187;28;20481;-89
2022/03/22 06:56:14;;;;;;;16.03;11.80;;;2.40;99.90;;;;;;4992969;28;20566;-88
2022/03/22 06:58:57;;;;;;;19.80;12.67;;;2.60;99.90;;;;;;4999685;28;20466;-89
2022/03/22 07:01:23;;;;;;;19.57;12.17;;;2.80;99.90;;;;;;4981044;28;20543;-89
2022/03/22 07:03:55;;;;;;;17.53;13.00;;;2.80;99.90;;;;;;4986788;28;20452;-90
2022/03/22 07:06:20;;;;;;;19.00;12.10;;;3.60;99.90;;;;;;4970614;28;20270;-90
2022/03/22 07:08:47;;;;;;;16.57;12.20;;;2.90;99.90;;;;;;4998553;28;20447;-87
2022/03/22 07:13:57;;;;;;;15.20;12.10;;;3.50;99.90;;;;;;4989542;28;20458;-87
2022/03/22 07:16:27;;;;;;;15.43;12.27;;;3.50;99.90;;;;;;4977089;28;20447;-88
2022/03/22 07:18:53;;;;;;;18.10;12.77;;;3.60;99.90;;;;;;4987171;28;20209;-90
2022/03/22 07:21:19;;;;;;;17.60;12.70;;;3.70;99.90;;;;;;4978679;28;20463;-90
2022/03/22 07:23:46;;;;;;;19.93;13.10;;;4.10;99.90;;;;;;4992549;28;20437;-89
2022/03/22 07:26:16;;;;;;;19.10;13.23;;;3.60;99.90;;;;;;4983995;28;20269;-89
2022/03/22 07:28:44;;;;;;;19.37;12.87;;;3.80;99.90;;;;;;4985313;28;20437;-90
2022/03/22 07:31:09;;;;;;;18.60;12.30;;;4.20;99.90;;;;;;4992843;28;20195;-89
2022/03/22 07:33:37;;;;;;;24.70;12.77;;;4.40;99.90;;;;;;4984375;28;20527;-89
2022/03/22 07:36:04;;;;;;;19.77;12.70;;;4.50;99.90;;;;;;4994405;28;20197;-89
2022/03/22 07:38:30;;;;;;;15.60;12.30;;;4.70;99.90;;;;;;4982829;28;20447;-89
2022/03/22 07:40:56;;;;;;;16.20;12.57;;;4.40;99.90;;;;;;5000537;28;20487;-89
2022/03/22 07:43:21;;;;;;;21.80;13.17;;;5.50;99.90;;;;;;5018589;28;20206;-89
2022/03/22 07:45:47;;;;;;;18.53;12.13;;;4.70;99.90;;;;;;4990554;28;20691;-89
2022/03/22 07:48:16;;;;;;;17.40;12.63;;;5.40;99.90;;;;;;4983825;28;20247;-89
2022/03/22 07:53:26;;;;;;;18.93;12.80;;;5.60;99.90;;;;;;4986917;28;20452;-90
2022/03/22 07:55:51;;;;;;;15.67;12.73;;;6.10;99.90;;;;;;5003765;28;20440;-90
2022/03/22 07:58:20;;;;;;;18.10;11.97;;;5.80;99.90;;;;;;4990796;28;23849;-90
2022/03/22 08:00:47;;;;;;;16.07;12.00;;;6.50;99.90;;;;;;4997741;28;20234;-90
2022/03/22 08:03:15;;;;;;;14.97;13.10;;;6.70;99.90;;;;;;4993847;28;21806;-90
2022/03/22 08:05:46;;;;;;;16.13;13.73;;;7.10;99.90;;;;;;4982831;28;20452;-88
2022/03/22 08:08:25;;;;;;;17.30;13.07;;;6.50;99.30;;;;;;4982744;28;20457;-90
2022/03/22 08:10:52;;;;;;;19.63;13.50;;;6.90;99.50;;;;;;4978813;28;20444;-90
2022/03/22 08:13:20;;;;;;;15.93;13.10;;;6.80;98.80;;;;;;4984230;28;20470;-89
2022/03/22 08:15:53;;;;;;;15.30;13.30;;;7.00;99.20;;;;;;4996433;28;20469;-90
2022/03/22 08:18:31;;;;;;;16.73;13.13;;;7.30;99.90;;;;;;4978015;28;20450;-89
2022/03/22 08:21:11;;;;;;;15.97;13.53;;;7.50;99.50;;;;;;4990127;28;20459;-91
2022/03/22 08:23:37;;;;;;;17.70;13.20;;;8.00;98.60;;;;;;4997978;28;21428;-90
2022/03/22 08:26:05;;;;;;;16.53;13.40;;;8.10;97.80;;;;;;5003688;28;20443;-90
2022/03/22 08:28:32;;;;;;;22.30;13.37;;;8.30;98.00;;;;;;4992106;28;20849;-91
2022/03/22 08:31:57;;;;;;;15.60;12.83;;;8.30;97.50;;;;;;5003419;28;20446;-90
2022/03/22 08:34:40;;;;;;;19.70;13.73;;;8.70;97.60;;;;;;4991032;28;20487;-90
2022/03/22 08:37:07;;;;;;;15.87;13.50;;;8.60;99.50;;;;;;5002258;28;20523;-90
2022/03/22 08:39:33;;;;;;;14.93;13.33;;;8.60;96.10;;;;;;4979625;28;20255;-90
2022/03/22 08:42:05;;;;;;;15.50;13.10;;;8.60;95.60;;;;;;5002646;28;20989;-89
2022/03/22 08:44:31;;;;;;;17.10;13.50;;;9.60;95.30;;;;;;4986924;28;20296;-90
2022/03/22 08:46:57;;;;;;;20.03;13.10;;;8.80;94.70;;;;;;4994506;28;20851;-90
2022/03/22 08:49:22;;;;;;;17.50;13.07;;;9.30;94.00;;;;;;5005750;28;20940;-90
2022/03/22 08:51:49;;;;;;;15.53;12.70;;;9.70;93.60;;;;;;4985969;28;20448;-90
2022/03/22 08:54:23;;;;;;;16.97;12.90;;;10.20;92.10;;;;;;4977977;28;20855;-89
2022/03/22 08:56:51;;;;;;;13.80;12.33;;;9.80;91.40;;;;;;4984276;28;20447;-89
2022/03/22 08:59:16;;;;;;;14.27;12.77;;;10.00;90.70;;;;;;4990602;28;20789;-88
2022/03/22 09:01:42;;;;;;;16.73;13.60;;;10.70;90.20;;;;;;4991516;28;21226;-87
2022/03/22 09:06:51;;;;;;;17.47;14.60;;;10.40;85.60;;;;;;4980233;28;20195;-88
2022/03/22 09:09:17;;;;;;;16.77;14.13;;;10.50;89.30;;;;;;4983498;28;21122;-89
2022/03/22 09:11:43;;;;;;;17.33;13.97;;;10.80;85.50;;;;;;4987199;28;20189;-88
2022/03/22 09:14:08;;;;;;;19.03;14.63;;;10.90;84.60;;;;;;4984139;28;20197;-88
2022/03/22 09:16:39;;;;;;;16.47;14.20;;;10.70;85.60;;;;;;4990459;28;20204;-88
2022/03/22 09:19:21;;;;;;;16.70;13.83;;;10.80;84.50;;;;;;4990119;28;20830;-88
2022/03/22 09:21:56;;;;;;;16.27;13.73;;;11.20;82.70;;;;;;4976208;28;20452;-89
2022/03/22 09:24:37;;;;;;;23.73;15.33;;;11.80;83.30;;;;;;4981703;28;20440;-91
2022/03/22 09:27:03;;;;;;;18.10;14.77;;;11.50;84.60;;;;;;4984611;28;20193;-91
2022/03/22 09:29:29;;;;;;;17.90;15.17;;;11.70;85.20;;;;;;4987156;28;20980;-90
2022/03/22 09:31:55;;;;;;;15.43;13.70;;;12.00;83.00;;;;;;4993426;28;20444;-89
2022/03/22 09:34:22;;;;;;;16.50;14.70;;;12.40;80.10;;;;;;5001666;28;20286;-90
2022/03/22 09:36:48;;;;;;;20.70;15.10;;;13.20;80.60;;;;;;4983351;28;20524;-90
2022/03/22 09:39:14;;;;;;;18.93;16.23;;;12.80;76.60;;;;;;4997875;28;20558;-90
2022/03/22 09:41:45;;;;;;;19.57;15.20;;;13.00;74.90;;;;;;4987245;28;20444;-90
2022/03/22 09:44:23;;;;;;;17.23;15.10;;;13.40;73.60;;;;;;5015899;28;20204;-90
2022/03/22 09:46:56;;;;;;;17.40;15.50;;;13.30;72.10;;;;;;4996239;28;20448;-89
2022/03/22 09:49:47;;;;;;;18.50;15.80;;;13.50;68.10;;;;;;4985248;28;22464;-90
2022/03/22 09:52:23;;;;;;;16.67;14.87;;;13.60;66.60;;;;;;4992622;28;21251;-89
2022/03/22 09:54:49;;;;;;;17.20;14.97;;;13.20;65.50;;;;;;5001505;28;20480;-90
2022/03/22 09:57:16;;;;;;;22.10;16.63;;;13.50;70.40;;;;;;4978653;28;20451;-89
2022/03/22 10:00:20;;;;;;;21.00;16.07;;;13.70;73.70;;;;;;4985191;28;20769;-89
2022/03/22 10:02:46;;;;;;;20.53;17.03;;;13.90;68.20;;;;;;4973801;28;20468;-91
2022/03/22 10:05:26;;;;;;;18.43;16.40;;;14.00;65.40;;;;;;4978664;28;21130;-90
2022/03/22 10:08:24;;;;;;;20.07;15.97;;;13.80;65.00;;;;;;4977870;28;20243;-92
2022/03/22 10:10:58;;;;;;;19.40;16.67;;;13.90;62.50;;;;;;4978289;28;20443;-90
2022/03/22 10:13:24;;;;;;;22.63;16.23;;;14.30;69.30;;;;;;5011217;28;20439;-90
2022/03/22 10:15:50;;;;;;;20.97;15.90;;;14.30;67.30;;;;;;4992608;28;20459;-90
2022/03/22 10:18:27;;;;;;;18.93;15.80;;;13.90;64.70;;;;;;5009672;28;21016;-90
2022/03/22 10:21:04;;;;;;;18.80;15.93;;;13.80;66.60;;;;;;5005423;28;20490;-90
2022/03/22 10:23:33;;;;;;;19.40;17.30;;;14.40;69.40;;;;;;4986849;28;20454;-90
2022/03/22 10:26:07;;;;;;;19.17;17.10;;;14.70;63.60;;;;;;4987220;28;20526;-91
2022/03/22 10:28:34;;;;;;;20.20;18.10;;;15.00;64.90;;;;;;4994099;28;20435;-92
2022/03/22 10:31:08;;;;;;;22.73;17.50;;;15.00;66.80;;;;;;4997048;28;20470;-90
2022/03/22 10:33:34;;;;;;;20.10;17.40;;;15.70;72.90;;;;;;5007348;28;20439;-90
2022/03/22 10:36:14;;;;;;;20.23;18.10;;;15.70;71.00;;;;;;4988540;28;20482;-89
2022/03/22 10:38:53;;;;;;;20.27;17.90;;;15.80;71.10;;;;;;5005836;28;20263;-89
2022/03/22 10:41:24;;;;;;;20.50;18.30;;;16.00;64.70;;;;;;5003285;28;20862;-89
2022/03/22 10:44:14;;;;;;;18.27;16.37;;;15.70;63.60;;;;;;5002843;28;20490;-89
2022/03/22 10:46:42;;;;;;;21.80;18.13;;;15.30;68.30;;;;;;5003634;28;20436;-88
2022/03/22 10:49:13;;;;;;;21.07;18.00;;;15.50;61.90;;;;;;4987690;28;20458;-89
2022/03/22 10:51:46;;;;;;;21.77;17.20;;;16.00;62.90;;;;;;5001620;28;20442;-90
2022/03/22 10:54:15;;;;;;;21.60;17.63;;;15.60;66.20;;;;;;4993319;28;21238;-89
2022/03/22 10:56:47;;;;;;;19.07;16.83;;;15.90;69.00;;;;;;4987245;28;20506;-90
2022/03/22 10:59:18;;;;;;;19.50;17.17;;;16.30;69.50;;;;;;5010422;28;20545;-91
2022/03/22 11:01:47;;;;;;;20.93;18.83;;;16.80;72.50;;;;;;4997079;28;20439;-89
2022/03/22 11:04:16;;;;;;;19.60;17.50;;;16.40;64.50;;;;;;5002403;28;20989;-90
2022/03/22 11:06:46;;;;;;;21.23;18.73;;;16.60;61.70;;;;;;5001610;28;20510;-89
2022/03/22 11:09:30;;;;;;;;;;;;;;;;;;;;;
2022/03/22 11:11:57;;;;;;;20.20;17.97;;;16.80;68.40;;;;;;5005067;28;20435;-91
2022/03/22 11:14:24;;;;;;;19.10;17.10;;;17.20;63.50;;;;;;5005651;28;20444;-90
2022/03/22 11:16:50;;;;;;;20.70;18.60;;;17.70;58.40;;;;;;5000532;28;20460;-88
2022/03/22 11:19:17;;;;;;;20.70;17.90;;;18.40;59.20;;;;;;5001821;28;20893;-90
2022/03/22 11:21:42;;;;;;;20.90;18.63;;;18.00;59.80;;;;;;4995842;28;20778;-90
2022/03/22 11:24:14;;;;;;;21.60;19.30;;;18.10;60.40;;;;;;5008089;28;20457;-91
2022/03/22 11:27:05;;;;;;;20.20;18.10;;;17.30;62.10;;;;;;5004986;28;20177;-89
2022/03/22 11:29:43;;;;;;;20.67;18.27;;;17.40;64.30;;;;;;5002582;28;20438;-87
2022/03/22 11:34:55;;;;;;;19.83;17.93;;;17.30;63.60;;;;;;4984344;28;20884;-86
2022/03/22 11:37:34;;;;;;;23.93;19.07;;;17.60;66.20;;;;;;4994984;28;20455;-86
2022/03/22 11:43:07;;;;;;;22.83;19.87;;;18.30;59.80;;;;;;5003521;28;21186;-84
2022/03/22 11:45:34;;;;;;;21.50;18.03;;;17.80;64.30;;;;;;5000366;28;20447;-85
2022/03/22 11:48:07;;;;;;;21.40;18.27;;;17.90;61.60;;;;;;5019841;28;20444;-85
2022/03/22 11:50:34;;;;;;;20.37;18.17;;;17.40;59.10;;;;;;5001007;28;20536;-85
2022/03/22 11:53:01;;;;;;;22.70;18.77;;;17.70;63.40;;;;;;5005589;28;20436;-84
2022/03/22 11:55:27;;;;;;;26.50;19.57;;;18.00;62.80;;;;;;5009864;28;20501;-85
2022/03/22 11:57:56;;;;;;;21.87;17.80;;;17.60;59.10;;;;;;4985512;28;20459;-85
2022/03/22 12:00:42;;;;;;;19.80;17.80;;;17.40;61.60;;;;;;4988469;28;20826;-84
2022/03/22 12:03:21;;;;;;;21.50;18.67;;;17.40;59.00;;;;;;5004184;28;20437;-85
2022/03/22 12:05:47;;;;;;;22.57;18.63;;;17.60;57.80;;;;;;5002245;28;20439;-85
2022/03/22 12:08:14;;;;;;;23.43;18.67;;;17.40;58.30;;;;;;5011935;28;20888;-84
2022/03/22 12:10:45;;;;;;;21.63;19.00;;;17.40;57.40;;;;;;4996693;28;20185;-85
2022/03/22 12:13:12;;;;;;;21.50;19.20;;;17.30;58.80;;;;;;5005757;28;20444;-85
2022/03/22 12:15:38;;;;;;;22.07;19.27;;;17.40;58.00;;;;;;4999693;28;20491;-85
2022/03/22 12:18:03;;;;;;;20.50;18.40;;;17.60;58.30;;;;;;5024496;28;20631;-85
2022/03/22 12:20:29;;;;;;;20.87;18.67;;;18.00;56.50;;;;;;5009556;28;20304;-85
2022/03/22 12:22:59;;;;;;;21.10;17.03;;;18.20;55.70;;;;;;4986127;28;21432;-86
2022/03/22 12:25:29;;;;;;;21.00;18.80;;;18.50;59.50;;;;;;4994950;28;20181;-85
2022/03/22 12:27:58;;;;;;;22.63;20.27;;;18.60;55.50;;;;;;4996105;28;20509;-86
2022/03/22 12:30:31;;;;;;;21.40;18.33;;;18.70;58.90;;;;;;5008645;28;20519;-85
2022/03/22 12:32:59;;;;;;;21.27;19.07;;;18.50;54.30;;;;;;5013207;28;20937;-85
2022/03/22 12:35:25;;;;;;;20.53;18.30;;;18.60;55.50;;;;;;4996537;28;20828;-85
2022/03/22 12:37:52;;;;;;;20.60;17.80;;;18.80;57.90;;;;;;5011581;28;20505;-85
2022/03/22 12:40:22;;;;;;;20.73;18.00;;;18.80;54.20;;;;;;4995260;28;20477;-86
2022/03/22 12:42:52;;;;;;;19.63;17.60;;;19.40;57.40;;;;;;5002216;28;20950;-85
2022/03/22 12:45:22;;;;;;;17.97;16.20;;;19.70;56.90;;;;;;4996709;28;20526;-86
2022/03/22 12:47:48;;;;;;;20.77;18.67;;;20.80;53.60;;;;;;5012599;28;20432;-85
2022/03/22 12:50:16;;;;;;;18.23;16.33;;;21.00;58.90;;;;;;4999433;28;21071;-86
2022/03/22 12:52:42;;;;;;;20.33;18.20;;;20.30;58.00;;;;;;4994042;28;20436;-86
2022/03/22 12:55:10;;;;;;;18.57;16.70;;;20.40;57.20;;;;;;4998710;28;20671;-85
2022/03/22 12:57:38;;;;;;;19.87;17.77;;;20.20;55.40;;;;;;4996408;28;20432;-85
2022/03/22 13:00:05;;;;;;;17.97;16.20;;;20.20;59.10;;;;;;5018692;28;20495;-85
2022/03/22 13:02:30;;;;;;;18.10;16.30;;;20.00;58.10;;;;;;5001096;28;20467;-85
2022/03/22 13:04:56;;;;;;;18.80;16.90;;;20.00;56.80;;;;;;4995355;28;20536;-84
2022/03/22 13:07:27;;;;;;;19.63;17.30;;;19.80;58.20;;;;;;4995535;28;20200;-86
2022/03/22 13:12:43;;;;;;;17.87;16.13;;;20.50;57.00;;;;;;4994535;28;20443;-86
2022/03/22 13:15:11;;;;;;;17.17;15.33;;;20.60;53.50;;;;;;4999655;28;20440;-85
2022/03/22 13:17:49;;;;;;;16.97;15.20;;;20.60;53.60;;;;;;4997265;28;20447;-85
2022/03/22 13:20:27;;;;;;;17.07;15.50;;;20.70;50.60;;;;;;4997797;28;20487;-85